Time;durP1;ratioP1;P1;durP2;ratioP2;P2;SDS_P1;SDS_P2;PMS_P1;PMS_P2;Temp;Humidity;BMP_temperature;BMP_pressure;BME280_temperature;BME280_humidity;BME280_pressure;Samples;Min_cycle;Max_cycle;Signal;HPM_P1;HPM_P2
2022/03/02 00:00:19;;;;;;;24.93;20.40;;;;;;;;;;6212044;28;20240;-69
2022/03/02 00:03:40;;;;;;;22.93;20.50;;;;;;;;;;6209936;28;20654;-70
2022/03/02 00:07:01;;;;;;;21.93;19.43;;;;;;;;;;6205060;28;20229;-70
2022/03/02 00:10:22;;;;;;;22.87;18.77;;;;;;;;;;6214700;28;20233;-70
2022/03/02 00:13:44;;;;;;;22.80;19.40;;;;;;;;;;6209635;28;20253;-69
2022/03/02 00:17:06;;;;;;;24.90;21.37;;;;;;;;;;6209494;28;20224;-69
2022/03/02 00:20:27;;;;;;;22.23;18.10;;;;;;;;;;6213003;28;20273;-69
2022/03/02 00:23:48;;;;;;;26.10;19.50;;;;;;;;;;6214907;28;20331;-71
2022/03/02 00:27:09;;;;;;;22.33;19.53;;;;;;;;;;6215062;28;20225;-70
2022/03/02 00:30:32;;;;;;;23.33;20.23;;;;;;;;;;6215991;28;20229;-70
2022/03/02 00:33:57;;;;;;;23.60;20.57;;;;;;;;;;6218640;28;20221;-70
2022/03/02 00:37:17;;;;;;;21.07;18.43;;;;;;;;;;6218861;28;20522;-70
2022/03/02 00:40:39;;;;;;;22.27;19.83;;;;;;;;;;6220533;28;20498;-69
2022/03/02 00:44:00;;;;;;;23.37;18.07;;;;;;;;;;6212042;28;20233;-69
2022/03/02 00:47:21;;;;;;;21.73;18.83;;;;;;;;;;6210836;28;20706;-69
2022/03/02 00:50:44;;;;;;;22.83;18.97;;;;;;;;;;6208012;28;20237;-69
2022/03/02 00:54:05;;;;;;;22.47;18.80;;;;;;;;;;6210544;28;20312;-70
2022/03/02 00:57:26;;;;;;;21.57;18.77;;;;;;;;;;6212062;28;20935;-69
2022/03/02 01:00:47;;;;;;;23.63;20.97;;;;;;;;;;6213052;28;20233;-69
2022/03/02 01:04:08;;;;;;;21.67;19.37;;;;;;;;;;6218002;28;20348;-68
2022/03/02 01:07:30;;;;;;;24.73;21.97;;;;;;;;;;6212163;28;20233;-69
2022/03/02 01:10:51;;;;;;;23.83;20.10;;;;;;;;;;6215597;28;20603;-69
2022/03/02 01:14:12;;;;;;;24.80;20.50;;;;;;;;;;6213145;28;20253;-69
2022/03/02 01:17:32;;;;;;;23.97;20.30;;;;;;;;;;6215587;28;20522;-70
2022/03/02 01:20:53;;;;;;;22.00;19.30;;;;;;;;;;6213850;28;20226;-69
2022/03/02 01:24:16;;;;;;;22.97;19.37;;;;;;;;;;6212313;28;20237;-69
2022/03/02 01:27:37;;;;;;;26.87;21.57;;;;;;;;;;6209922;28;20225;-69
2022/03/02 01:30:58;;;;;;;22.13;19.60;;;;;;;;;;6203595;28;20234;-70
2022/03/02 01:34:19;;;;;;;24.73;20.60;;;;;;;;;;6210258;28;20241;-69
2022/03/02 01:37:40;;;;;;;21.50;18.83;;;;;;;;;;6215872;28;20460;-69
2022/03/02 01:41:02;;;;;;;24.10;20.33;;;;;;;;;;6213451;28;20233;-68
2022/03/02 01:44:23;;;;;;;22.93;20.57;;;;;;;;;;6220660;28;20237;-68
2022/03/02 01:47:44;;;;;;;22.07;19.53;;;;;;;;;;6214896;28;20221;-68
2022/03/02 01:51:05;;;;;;;20.37;18.17;;;;;;;;;;6215989;28;20237;-69
2022/03/02 01:54:26;;;;;;;24.80;20.97;;;;;;;;;;6211728;28;20233;-71
2022/03/02 01:57:48;;;;;;;23.63;21.23;;;;;;;;;;6211851;28;20261;-69
2022/03/02 02:01:10;;;;;;;21.27;18.87;;;;;;;;;;6206138;28;20225;-69
2022/03/02 02:04:30;;;;;;;21.17;18.63;;;;;;;;;;6207101;28;20237;-69
2022/03/02 02:07:51;;;;;;;22.43;18.40;;;;;;;;;;6215613;28;20614;-69
2022/03/02 02:11:15;;;;;;;23.97;20.30;;;;;;;;;;6214513;28;20630;-69
2022/03/02 02:14:37;;;;;;;22.53;19.43;;;;;;;;;;6211453;28;20229;-69
2022/03/02 02:17:58;;;;;;;23.83;20.43;;;;;;;;;;6186294;28;20229;-69
2022/03/02 02:21:20;;;;;;;22.13;19.77;;;;;;;;;;6212919;28;20240;-68
2022/03/02 02:24:41;;;;;;;20.97;18.77;;;;;;;;;;6212691;28;20233;-68
2022/03/02 02:28:02;;;;;;;21.73;19.37;;;;;;;;;;6210552;28;20712;-68
2022/03/02 02:31:23;;;;;;;24.80;20.30;;;;;;;;;;6204933;28;20259;-69
2022/03/02 02:34:44;;;;;;;19.60;17.50;;;;;;;;;;6213712;28;20819;-69
2022/03/02 02:38:07;;;;;;;22.97;20.00;;;;;;;;;;6217191;28;20237;-68
2022/03/02 02:41:27;;;;;;;19.90;17.80;;;;;;;;;;6202396;28;20233;-69
2022/03/02 02:44:48;;;;;;;23.43;18.53;;;;;;;;;;6210681;28;20267;-68
2022/03/02 02:48:09;;;;;;;20.53;18.23;;;;;;;;;;6212850;28;20221;-69
2022/03/02 02:51:30;;;;;;;24.60;20.23;;;;;;;;;;6209960;28;20233;-69
2022/03/02 02:54:52;;;;;;;21.97;19.60;;;;;;;;;;6212681;28;20232;-69
2022/03/02 02:58:13;;;;;;;21.20;17.67;;;;;;;;;;6217352;28;20229;-70
2022/03/02 03:01:34;;;;;;;24.33;18.73;;;;;;;;;;6211112;28;20233;-70
2022/03/02 03:04:55;;;;;;;20.80;17.53;;;;;;;;;;6209443;28;20237;-68
2022/03/02 03:08:15;;;;;;;24.27;20.67;;;;;;;;;;6214288;28;20233;-67
2022/03/02 03:11:39;;;;;;;21.27;18.67;;;;;;;;;;6208140;28;20225;-69
2022/03/02 03:15:00;;;;;;;23.53;17.73;;;;;;;;;;6213808;28;20225;-69
2022/03/02 03:18:21;;;;;;;23.97;21.43;;;;;;;;;;6213764;28;20614;-69
2022/03/02 03:21:42;;;;;;;20.90;18.80;;;;;;;;;;6212810;28;20237;-69
2022/03/02 03:25:04;;;;;;;21.47;18.73;;;;;;;;;;6212522;28;20229;-69
2022/03/02 03:28:26;;;;;;;21.17;18.87;;;;;;;;;;6207158;28;20224;-69
2022/03/02 03:31:47;;;;;;;23.93;19.90;;;;;;;;;;6207886;28;20221;-69
2022/03/02 03:35:09;;;;;;;21.87;19.73;;;;;;;;;;6211509;28;20229;-69
2022/03/02 03:38:30;;;;;;;21.03;17.47;;;;;;;;;;6176349;28;20225;-71
2022/03/02 03:41:51;;;;;;;21.20;18.73;;;;;;;;;;6211235;28;20312;-69
2022/03/02 03:45:14;;;;;;;20.63;18.43;;;;;;;;;;6209049;28;20247;-69
2022/03/02 03:48:35;;;;;;;19.63;17.73;;;;;;;;;;6193390;28;20236;-70
2022/03/02 03:51:56;;;;;;;23.13;20.03;;;;;;;;;;6209928;28;20225;-70
2022/03/02 03:55:17;;;;;;;20.60;18.40;;;;;;;;;;6215185;28;20245;-68
2022/03/02 03:58:38;;;;;;;21.43;18.90;;;;;;;;;;6210650;28;21059;-68
2022/03/02 04:02:00;;;;;;;24.00;19.47;;;;;;;;;;6208298;28;20248;-69
2022/03/02 04:05:21;;;;;;;21.10;18.87;;;;;;;;;;6210269;28;20241;-69
2022/03/02 04:08:41;;;;;;;24.77;20.30;;;;;;;;;;6213599;28;20229;-70
2022/03/02 04:12:03;;;;;;;50.27;44.77;;;;;;;;;;6196390;28;20236;-69
2022/03/02 04:15:24;;;;;;;71.57;60.63;;;;;;;;;;6204586;28;20229;-68
2022/03/02 04:18:46;;;;;;;26.63;23.77;;;;;;;;;;6206724;28;20229;-68
2022/03/02 04:22:07;;;;;;;20.33;18.30;;;;;;;;;;6207384;28;20240;-70
2022/03/02 04:25:28;;;;;;;19.57;17.37;;;;;;;;;;6209842;28;20228;-69
2022/03/02 04:28:48;;;;;;;18.10;16.30;;;;;;;;;;6210597;28;20229;-69
2022/03/02 04:32:09;;;;;;;23.87;18.67;;;;;;;;;;6211047;28;20225;-68
2022/03/02 04:35:32;;;;;;;18.80;16.90;;;;;;;;;;6209056;28;20286;-69
2022/03/02 04:38:52;;;;;;;17.93;16.03;;;;;;;;;;6211892;28;20233;-69
2022/03/02 04:42:13;;;;;;;19.73;15.97;;;;;;;;;;6207511;28;20221;-70
2022/03/02 04:45:34;;;;;;;19.90;17.83;;;;;;;;;;6210139;28;20237;-69
2022/03/02 04:48:55;;;;;;;19.87;16.10;;;;;;;;;;6215475;28;20233;-69
2022/03/02 04:52:17;;;;;;;19.80;17.73;;;;;;;;;;6217851;28;20320;-70
2022/03/02 04:55:38;;;;;;;20.57;17.67;;;;;;;;;;6208419;28;20634;-69
2022/03/02 04:59:01;;;;;;;20.77;18.57;;;;;;;;;;6212223;28;20246;-68
2022/03/02 05:02:22;;;;;;;20.43;18.47;;;;;;;;;;6208332;28;20352;-69
2022/03/02 05:05:43;;;;;;;19.23;17.17;;;;;;;;;;6213905;28;20228;-70
2022/03/02 05:09:05;;;;;;;51.80;46.33;;;;;;;;;;6202948;28;20233;-69
2022/03/02 05:12:26;;;;;;;52.23;46.10;;;;;;;;;;6214883;28;20228;-67
2022/03/02 05:15:47;;;;;;;49.37;44.00;;;;;;;;;;6214249;28;20213;-68
2022/03/02 05:19:07;;;;;;;50.50;44.10;;;;;;;;;;6215583;28;20259;-69
2022/03/02 05:22:28;;;;;;;57.57;51.30;;;;;;;;;;6209843;28;20225;-68
2022/03/02 05:25:51;;;;;;;38.13;34.03;;;;;;;;;;6209534;28;20784;-69
2022/03/02 05:29:12;;;;;;;28.60;23.70;;;;;;;;;;6215471;28;21958;-68
2022/03/02 05:32:33;;;;;;;22.73;19.27;;;;;;;;;;6211591;28;20554;-69
2022/03/02 05:35:53;;;;;;;21.57;19.20;;;;;;;;;;6213577;28;20240;-70
2022/03/02 05:39:14;;;;;;;21.30;19.10;;;;;;;;;;6222234;28;20328;-69
2022/03/02 05:42:37;;;;;;;20.70;18.37;;;;;;;;;;6218942;28;20233;-70
2022/03/02 05:45:58;;;;;;;20.00;17.80;;;;;;;;;;6215749;28;20229;-69
2022/03/02 05:49:18;;;;;;;23.10;19.07;;;;;;;;;;6218491;28;20245;-69
2022/03/02 05:52:39;;;;;;;22.77;19.00;;;;;;;;;;6211729;28;20343;-68
2022/03/02 05:56:00;;;;;;;21.37;18.77;;;;;;;;;;6219525;28;20228;-69
2022/03/02 05:59:22;;;;;;;22.10;19.20;;;;;;;;;;6212207;28;20233;-69
2022/03/02 06:02:43;;;;;;;23.77;19.23;;;;;;;;;;6206989;28;20229;-70
2022/03/02 06:06:05;;;;;;;21.67;19.37;;;;;;;;;;6213353;28;20245;-69
2022/03/02 06:09:26;;;;;;;24.77;20.13;;;;;;;;;;6213056;28;20357;-69
2022/03/02 06:12:47;;;;;;;28.17;22.83;;;;;;;;;;6210491;28;20516;-68
2022/03/02 06:16:10;;;;;;;25.80;20.70;;;;;;;;;;6212398;28;20576;-70
2022/03/02 06:19:33;;;;;;;22.80;20.27;;;;;;;;;;6211510;28;20236;-69
2022/03/02 06:22:55;;;;;;;23.30;20.73;;;;;;;;;;6214783;28;20229;-69
2022/03/02 06:26:18;;;;;;;23.37;20.93;;;;;;;;;;6209879;28;20594;-69
2022/03/02 06:29:39;;;;;;;23.70;21.07;;;;;;;;;;6210503;28;20367;-69
2022/03/02 06:33:01;;;;;;;51.23;44.33;;;;;;;;;;6208669;28;21781;-69
2022/03/02 06:36:22;;;;;;;47.00;41.73;;;;;;;;;;6204216;28;20300;-70
2022/03/02 06:39:42;;;;;;;24.77;22.17;;;;;;;;;;6211827;28;20229;-70
2022/03/02 06:43:06;;;;;;;22.70;19.83;;;;;;;;;;6211009;28;20282;-69
2022/03/02 06:46:32;;;;;;;21.20;18.27;;;;;;;;;;6212532;28;21959;-71
2022/03/02 06:50:00;;;;;;;22.07;17.73;;;;;;;;;;6215721;28;20241;-69
2022/03/02 06:53:30;;;;;;;20.87;18.23;;;;;;;;;;6209806;28;20767;-69
2022/03/02 06:56:53;;;;;;;21.10;18.83;;;;;;;;;;6207787;28;20247;-70
2022/03/02 07:00:16;;;;;;;22.57;17.60;;;;;;;;;;6211321;28;20228;-69
2022/03/02 07:03:45;;;;;;;19.67;17.60;;;;;;;;;;6208269;28;20245;-70
2022/03/02 07:07:08;;;;;;;30.97;21.60;;;;;;;;;;6210577;28;20233;-69
2022/03/02 07:10:29;;;;;;;26.27;20.50;;;;;;;;;;6216945;28;20225;-70
2022/03/02 07:13:51;;;;;;;23.97;17.97;;;;;;;;;;6213872;28;20626;-70
2022/03/02 07:17:12;;;;;;;22.30;20.00;;;;;;;;;;6208636;28;20252;-70
2022/03/02 07:20:33;;;;;;;24.93;18.83;;;;;;;;;;6209489;28;20229;-69
2022/03/02 07:24:00;;;;;;;25.60;17.07;;;;;;;;;;6204230;28;20320;-71
2022/03/02 07:27:22;;;;;;;21.47;19.37;;;;;;;;;;6219494;28;20245;-69
2022/03/02 07:30:44;;;;;;;21.30;19.03;;;;;;;;;;6206687;28;20517;-70
2022/03/02 07:34:07;;;;;;;26.73;19.03;;;;;;;;;;6205912;28;20247;-72
2022/03/02 07:37:28;;;;;;;23.70;18.90;;;;;;;;;;6209892;28;20240;-69
2022/03/02 07:40:52;;;;;;;24.90;19.90;;;;;;;;;;6199893;28;20236;-69
2022/03/02 07:44:13;;;;;;;23.80;20.87;;;;;;;;;;6199493;28;20623;-71
2022/03/02 07:47:34;;;;;;;21.67;19.20;;;;;;;;;;6204025;28;20820;-71
2022/03/02 07:50:56;;;;;;;24.00;20.27;;;;;;;;;;6204749;28;20233;-71
2022/03/02 07:54:21;;;;;;;25.33;19.67;;;;;;;;;;6205558;28;20288;-70
2022/03/02 07:57:43;;;;;;;23.93;20.40;;;;;;;;;;6202730;28;20233;-71
2022/03/02 08:01:04;;;;;;;26.13;22.20;;;;;;;;;;6208558;28;20320;-70
2022/03/02 08:04:26;;;;;;;23.13;20.20;;;;;;;;;;6201202;28;20498;-71
2022/03/02 08:07:48;;;;;;;24.17;20.97;;;;;;;;;;6206385;28;20229;-71
2022/03/02 08:11:08;;;;;;;35.30;30.60;;;;;;;;;;6210017;28;20233;-71
2022/03/02 08:14:32;;;;;;;23.67;21.10;;;;;;;;;;6209739;28;20240;-70
2022/03/02 08:17:53;;;;;;;23.77;21.17;;;;;;;;;;6202503;28;20229;-69
2022/03/02 08:21:17;;;;;;;21.53;19.20;;;;;;;;;;6198756;28;20234;-70
2022/03/02 08:24:41;;;;;;;23.10;19.60;;;;;;;;;;6199540;28;20221;-70
2022/03/02 08:28:03;;;;;;;20.70;18.60;;;;;;;;;;6209003;28;21486;-71
2022/03/02 08:31:25;;;;;;;18.57;16.67;;;;;;;;;;6201383;28;20257;-70
2022/03/02 08:34:47;;;;;;;23.17;20.63;;;;;;;;;;6203039;28;20232;-71
2022/03/02 08:38:10;;;;;;;32.07;28.67;;;;;;;;;;6201393;28;20642;-71
2022/03/02 08:41:31;;;;;;;25.10;20.83;;;;;;;;;;6196480;28;20224;-71
2022/03/02 08:44:54;;;;;;;21.00;18.77;;;;;;;;;;6210623;28;20245;-70
2022/03/02 08:48:17;;;;;;;21.87;19.27;;;;;;;;;;6209454;28;20254;-70
2022/03/02 08:51:39;;;;;;;22.80;20.13;;;;;;;;;;6217790;28;20579;-70
2022/03/02 08:55:04;;;;;;;22.63;18.40;;;;;;;;;;6209301;28;20325;-70
2022/03/02 08:58:27;;;;;;;22.27;19.00;;;;;;;;;;6209616;28;20241;-70
2022/03/02 09:01:50;;;;;;;23.57;19.17;;;;;;;;;;6210976;28;20229;-70
2022/03/02 09:05:12;;;;;;;18.60;16.63;;;;;;;;;;6209653;28;20226;-70
2022/03/02 09:08:34;;;;;;;19.93;17.47;;;;;;;;;;6194407;28;20321;-70
2022/03/02 09:11:56;;;;;;;20.40;16.77;;;;;;;;;;6206339;28;20236;-70
2022/03/02 09:15:17;;;;;;;18.47;16.53;;;;;;;;;;6204456;28;20265;-70
2022/03/02 09:18:38;;;;;;;18.13;16.30;;;;;;;;;;6208047;28;20509;-70
2022/03/02 09:22:00;;;;;;;20.87;17.03;;;;;;;;;;6209505;28;20225;-71
2022/03/02 09:25:22;;;;;;;19.50;16.60;;;;;;;;;;6223630;28;20255;-70
2022/03/02 09:28:44;;;;;;;16.47;14.87;;;;;;;;;;6204972;28;20263;-70
2022/03/02 09:32:06;;;;;;;17.77;15.07;;;;;;;;;;6206211;28;20532;-71
2022/03/02 09:35:28;;;;;;;19.20;15.53;;;;;;;;;;6203999;28;20246;-71
2022/03/02 09:38:52;;;;;;;15.13;13.57;;;;;;;;;;6193255;28;20614;-72
2022/03/02 09:42:15;;;;;;;20.07;16.07;;;;;;;;;;6199158;28;20236;-72
2022/03/02 09:45:36;;;;;;;16.43;14.20;;;;;;;;;;6203937;28;20639;-70
2022/03/02 09:48:59;;;;;;;16.33;14.67;;;;;;;;;;6214756;28;20559;-69
2022/03/02 09:52:21;;;;;;;15.67;13.43;;;;;;;;;;6205954;28;20237;-71
2022/03/02 09:55:45;;;;;;;15.70;13.70;;;;;;;;;;6210313;28;20237;-71
2022/03/02 09:59:08;;;;;;;13.83;12.43;;;;;;;;;;6185108;28;20324;-71
2022/03/02 10:02:36;;;;;;;16.60;13.00;;;;;;;;;;6188279;28;20844;-70
2022/03/02 10:06:03;;;;;;;12.83;11.53;;;;;;;;;;6202393;28;20240;-70
2022/03/02 10:09:27;;;;;;;14.27;11.73;;;;;;;;;;6201581;28;20264;-70
2022/03/02 10:12:50;;;;;;;12.13;10.87;;;;;;;;;;6206064;28;20512;-71
2022/03/02 10:16:23;;;;;;;12.70;11.33;;;;;;;;;;6205053;28;20639;-71
2022/03/02 10:19:46;;;;;;;12.05;10.90;;;;;;;;;;6202880;28;20221;-73
2022/03/02 10:23:20;;;;;;;11.80;10.70;;;;;;;;;;6199954;28;20221;-73
2022/03/02 10:26:46;;;;;;;21.38;19.42;;;;;;;;;;6190768;28;21076;-74
2022/03/02 10:30:09;;;;;;;11.65;10.48;;;;;;;;;;6201982;28;20316;-72
2022/03/02 10:33:38;;;;;;;12.68;11.43;;;;;;;;;;6190695;28;20618;-70
2022/03/02 10:37:34;;;;;;;13.50;12.27;;;;;;;;;;6188151;28;20606;-69
2022/03/02 10:40:59;;;;;;;12.73;11.43;;;;;;;;;;6191809;28;20247;-72
2022/03/02 10:44:32;;;;;;;14.45;13.07;;;;;;;;;;6196910;28;20319;-72
2022/03/02 10:48:00;;;;;;;13.25;11.95;;;;;;;;;;6200307;28;20221;-70
2022/03/02 10:51:23;;;;;;;13.82;12.60;;;;;;;;;;6202059;28;20237;-71
2022/03/02 10:54:45;;;;;;;16.90;14.40;;;;;;;;;;6202878;28;20229;-71
2022/03/02 10:58:06;;;;;;;15.55;14.10;;;;;;;;;;6206261;28;20221;-72
2022/03/02 11:01:27;;;;;;;14.55;13.23;;;;;;;;;;6202158;28;20241;-71
2022/03/02 11:04:50;;;;;;;14.30;12.82;;;;;;;;;;6202617;28;20235;-70
2022/03/02 11:08:10;;;;;;;14.65;13.35;;;;;;;;;;6203125;28;20682;-72
2022/03/02 11:11:35;;;;;;;14.02;12.73;;;;;;;;;;6201733;28;20229;-69
2022/03/02 11:14:57;;;;;;;14.68;13.27;;;;;;;;;;6205872;28;20244;-70
2022/03/02 11:18:20;;;;;;;15.65;14.15;;;;;;;;;;6201056;28;20230;-70
2022/03/02 11:21:44;;;;;;;14.38;13.00;;;;;;;;;;6205691;28;20244;-70
2022/03/02 11:25:06;;;;;;;13.80;12.60;;;;;;;;;;6205065;28;20497;-71
2022/03/02 11:28:27;;;;;;;14.63;13.30;;;;;;;;;;6205753;28;20232;-70
2022/03/02 11:31:50;;;;;;;13.00;11.70;;;;;;;;;;6196836;28;20237;-73
2022/03/02 11:35:14;;;;;;;14.98;13.50;;;;;;;;;;6184131;28;20229;-70
2022/03/02 11:38:40;;;;;;;15.32;14.00;;;;;;;;;;6170437;28;20237;-74
2022/03/02 11:42:03;;;;;;;13.50;12.25;;;;;;;;;;6210011;28;20225;-72
2022/03/02 11:45:26;;;;;;;14.88;13.63;;;;;;;;;;6169212;28;21115;-72
2022/03/02 11:48:47;;;;;;;14.05;12.80;;;;;;;;;;6194440;28;20232;-73
2022/03/02 11:52:11;;;;;;;18.85;13.88;;;;;;;;;;6187067;28;20237;-73
2022/03/02 11:55:34;;;;;;;15.00;13.43;;;;;;;;;;6193422;28;20307;-69
2022/03/02 11:59:00;;;;;;;13.50;12.23;;;;;;;;;;6199820;28;20233;-70
2022/03/02 12:02:22;;;;;;;15.05;13.75;;;;;;;;;;6202446;28;20253;-68
2022/03/02 12:05:46;;;;;;;13.30;11.93;;;;;;;;;;6204504;28;20229;-68
2022/03/02 12:09:06;;;;;;;12.70;11.60;;;;;;;;;;6197578;28;20253;-68
2022/03/02 12:12:28;;;;;;;14.15;12.85;;;;;;;;;;6193652;28;20625;-69
2022/03/02 12:15:52;;;;;;;13.93;12.68;;;;;;;;;;6202438;28;20256;-69
2022/03/02 12:19:23;;;;;;;14.43;13.13;;;;;;;;;;6193505;28;20315;-70
2022/03/02 12:22:46;;;;;;;30.75;28.10;;;;;;;;;;6208782;28;20236;-70
2022/03/02 12:26:08;;;;;;;25.75;23.58;;;;;;;;;;6205004;28;20240;-69
2022/03/02 12:29:31;;;;;;;17.40;15.88;;;;;;;;;;6206426;28;20331;-70
2022/03/02 12:32:54;;;;;;;15.38;14.05;;;;;;;;;;6198812;28;20328;-69
2022/03/02 12:36:15;;;;;;;13.73;12.40;;;;;;;;;;6203980;28;20233;-69
2022/03/02 12:39:37;;;;;;;15.75;14.35;;;;;;;;;;6206340;28;20232;-69
2022/03/02 12:42:58;;;;;;;15.93;14.25;;;;;;;;;;6196233;28;22756;-69
2022/03/02 12:46:20;;;;;;;14.70;13.30;;;;;;;;;;6201784;28;20237;-69
2022/03/02 12:49:42;;;;;;;16.88;15.40;;;;;;;;;;6192593;28;20351;-69
2022/03/02 12:53:04;;;;;;;15.10;13.80;;;;;;;;;;6198252;28;20316;-67
2022/03/02 12:56:24;;;;;;;14.70;13.13;;;;;;;;;;6192219;28;20229;-68
2022/03/02 12:59:46;;;;;;;14.45;13.05;;;;;;;;;;6203821;28;20320;-68
2022/03/02 13:03:10;;;;;;;15.52;14.15;;;;;;;;;;6205131;28;20240;-68
2022/03/02 13:06:33;;;;;;;15.02;13.43;;;;;;;;;;6207983;28;20237;-68
2022/03/02 13:09:55;;;;;;;15.93;14.32;;;;;;;;;;6211820;28;20261;-68
2022/03/02 13:13:32;;;;;;;15.75;14.35;;;;;;;;;;6205198;28;20232;-68
2022/03/02 13:16:52;;;;;;;16.85;15.20;;;;;;;;;;6207959;28;20233;-71
2022/03/02 13:20:19;;;;;;;14.77;13.43;;;;;;;;;;6210889;28;20233;-76
2022/03/02 13:23:40;;;;;;;16.63;15.13;;;;;;;;;;6202404;28;20229;-69
2022/03/02 13:27:12;;;;;;;16.88;15.35;;;;;;;;;;6191212;28;20222;-68
2022/03/02 13:30:33;;;;;;;18.92;17.00;;;;;;;;;;6207030;28;20591;-68
2022/03/02 13:34:08;;;;;;;15.63;14.02;;;;;;;;;;6206073;28;20240;-70
2022/03/02 13:37:59;;;;;;;14.25;13.05;;;;;;;;;;6204725;28;20237;-68
2022/03/02 13:41:39;;;;;;;16.15;14.65;;;;;;;;;;6202136;28;20249;-70
2022/03/02 13:45:08;;;;;;;15.88;14.32;;;;;;;;;;6216356;28;20245;-70
2022/03/02 13:48:29;;;;;;;16.13;14.52;;;;;;;;;;6217224;28;20317;-69
2022/03/02 13:51:51;;;;;;;16.45;14.85;;;;;;;;;;6197898;28;20246;-69
2022/03/02 13:55:40;;;;;;;17.30;15.63;;;;;;;;;;6180099;28;20320;-68
2022/03/02 13:59:02;;;;;;;14.63;13.23;;;;;;;;;;6188293;28;20244;-70
2022/03/02 14:02:23;;;;;;;14.82;13.40;;;;;;;;;;6212506;28;20241;-69
2022/03/02 14:05:46;;;;;;;14.88;13.48;;;;;;;;;;6210344;28;20221;-69
2022/03/02 14:09:09;;;;;;;18.45;16.65;;;;;;;;;;6217935;28;20233;-69
2022/03/02 14:12:32;;;;;;;20.23;18.45;;;;;;;;;;6216652;28;20243;-68
2022/03/02 14:15:52;;;;;;;16.95;15.43;;;;;;;;;;6212981;28;20293;-69
2022/03/02 14:19:13;;;;;;;15.88;14.27;;;;;;;;;;6210649;28;20497;-69
2022/03/02 14:22:34;;;;;;;15.32;13.85;;;;;;;;;;6216836;28;20229;-69
2022/03/02 14:25:56;;;;;;;14.10;12.90;;;;;;;;;;6210475;28;20245;-69
2022/03/02 14:29:20;;;;;;;14.98;13.63;;;;;;;;;;6215338;28;20272;-68
2022/03/02 14:32:42;;;;;;;15.80;14.40;;;;;;;;;;6187739;28;20237;-69
2022/03/02 14:36:04;;;;;;;15.93;14.43;;;;;;;;;;6216409;28;20229;-69
2022/03/02 14:39:24;;;;;;;17.33;14.65;;;;;;;;;;6213494;28;20229;-68
2022/03/02 14:42:51;;;;;;;15.15;13.65;;;;;;;;;;6215711;28;20229;-69
2022/03/02 14:46:13;;;;;;;21.00;19.10;;;;;;;;;;6215063;28;20232;-69
2022/03/02 14:49:34;;;;;;;19.80;17.90;;;;;;;;;;6217134;28;20233;-70
2022/03/02 14:52:57;;;;;;;17.35;15.68;;;;;;;;;;6216529;28;20225;-68
2022/03/02 14:56:18;;;;;;;16.40;14.80;;;;;;;;;;6210613;28;20238;-68
2022/03/02 14:59:39;;;;;;;17.08;15.43;;;;;;;;;;6215535;28;20630;-69
2022/03/02 15:03:14;;;;;;;16.50;13.93;;;;;;;;;;6204594;28;20245;-68
2022/03/02 15:06:37;;;;;;;16.25;14.73;;;;;;;;;;6211261;28;20240;-69
2022/03/02 15:10:06;;;;;;;18.17;16.33;;;;;;;;;;6217684;28;20229;-70
2022/03/02 15:17:09;;;;;;;20.15;18.02;;;;;;;;;;6212993;28;20232;-69
2022/03/02 15:20:32;;;;;;;19.15;17.35;;;;;;;;;;6213549;28;20237;-69
2022/03/02 15:23:55;;;;;;;17.88;16.00;;;;;;;;;;6210830;28;20232;-70
2022/03/02 15:27:17;;;;;;;17.70;16.00;;;;;;;;;;6214826;28;20233;-70
2022/03/02 15:30:38;;;;;;;18.60;16.70;;;;;;;;;;6214773;28;20261;-69
2022/03/02 15:34:15;;;;;;;18.17;16.37;;;;;;;;;;6205960;28;20241;-69
2022/03/02 15:37:39;;;;;;;19.53;17.30;;;;;;;;;;6215017;28;20228;-69
2022/03/02 15:41:00;;;;;;;19.23;17.40;;;;;;;;;;6214451;28;20331;-69
2022/03/02 15:44:22;;;;;;;18.60;16.80;;;;;;;;;;6211978;28;20235;-68
2022/03/02 15:47:47;;;;;;;20.13;17.03;;;;;;;;;;6213202;28;20233;-69
2022/03/02 15:51:08;;;;;;;18.10;16.30;;;;;;;;;;6207387;28;20275;-68
2022/03/02 15:54:31;;;;;;;19.90;17.90;;;;;;;;;;6213265;28;20229;-69
2022/03/02 15:57:54;;;;;;;20.67;18.27;;;;;;;;;;6212619;28;20228;-70
2022/03/02 16:01:16;;;;;;;20.63;18.53;;;;;;;;;;6211588;28;20345;-70
2022/03/02 16:04:37;;;;;;;22.70;20.40;;;;;;;;;;6214492;28;20233;-68
2022/03/02 16:08:00;;;;;;;22.80;20.70;;;;;;;;;;6213593;28;20237;-70
2022/03/02 16:11:23;;;;;;;23.90;19.57;;;;;;;;;;6207349;28;20229;-69
2022/03/02 16:14:53;;;;;;;21.33;19.20;;;;;;;;;;6212621;28;20256;-69
2022/03/02 16:18:17;;;;;;;21.83;19.47;;;;;;;;;;6207910;28;20229;-70
2022/03/02 16:21:41;;;;;;;21.17;19.03;;;;;;;;;;6212587;28;20217;-69
2022/03/02 16:25:16;;;;;;;20.20;18.20;;;;;;;;;;6200203;28;20314;-69
2022/03/02 16:28:40;;;;;;;23.47;19.10;;;;;;;;;;6208046;28;20549;-69
2022/03/02 16:32:02;;;;;;;22.13;19.93;;;;;;;;;;6211895;28;20241;-70
2022/03/02 16:35:24;;;;;;;23.53;20.87;;;;;;;;;;6210828;28;20749;-70
2022/03/02 16:38:45;;;;;;;24.13;21.63;;;;;;;;;;6214199;28;20221;-69
2022/03/02 16:42:07;;;;;;;22.37;20.03;;;;;;;;;;6213493;28;20600;-68
2022/03/02 16:45:30;;;;;;;24.20;21.60;;;;;;;;;;6212758;28;20229;-69
2022/03/02 16:48:51;;;;;;;24.77;22.13;;;;;;;;;;6208669;28;20606;-68
2022/03/02 16:52:12;;;;;;;23.50;21.30;;;;;;;;;;6212848;28;20326;-69
2022/03/02 16:55:32;;;;;;;26.17;23.33;;;;;;;;;;6212093;28;20570;-68
2022/03/02 16:58:53;;;;;;;28.33;25.37;;;;;;;;;;6196967;28;20225;-70
2022/03/02 17:02:16;;;;;;;29.47;26.07;;;;;;;;;;6210086;28;20233;-69
2022/03/02 17:05:37;;;;;;;36.13;31.63;;;;;;;;;;6208866;28;20230;-69
2022/03/02 17:08:58;;;;;;;38.17;34.03;;;;;;;;;;6217532;28;20903;-69
2022/03/02 17:12:19;;;;;;;41.20;35.70;;;;;;;;;;6218200;28;20249;-68
2022/03/02 17:15:40;;;;;;;39.23;35.03;;;;;;;;;;6210828;28;20237;-69
2022/03/02 17:19:02;;;;;;;47.20;42.30;;;;;;;;;;6217220;28;20285;-69
2022/03/02 17:22:25;;;;;;;46.07;37.83;;;;;;;;;;6216314;28;20237;-69
2022/03/02 17:25:46;;;;;;;47.00;41.87;;;;;;;;;;6211427;28;20236;-69
2022/03/02 17:29:07;;;;;;;53.07;46.07;;;;;;;;;;6212833;28;20229;-69
2022/03/02 17:32:28;;;;;;;92.43;78.37;;;;;;;;;;6212865;28;20693;-69
2022/03/02 17:35:50;;;;;;;67.00;57.03;;;;;;;;;;6212784;28;20232;-68
2022/03/02 17:39:13;;;;;;;63.20;55.60;;;;;;;;;;6218751;28;20596;-68
2022/03/02 17:42:35;;;;;;;75.07;66.87;;;;;;;;;;6209709;28;20319;-69
2022/03/02 17:45:55;;;;;;;54.77;49.10;;;;;;;;;;6214474;28;20649;-69
2022/03/02 17:49:16;;;;;;;40.13;35.00;;;;;;;;;;6216440;28;20528;-69
2022/03/02 17:52:40;;;;;;;36.40;31.10;;;;;;;;;;6215223;28;20229;-68
2022/03/02 17:56:00;;;;;;;102.00;89.83;;;;;;;;;;6214671;28;20237;-68
2022/03/02 17:59:21;;;;;;;73.70;64.23;;;;;;;;;;6217172;28;20229;-69
2022/03/02 18:02:42;;;;;;;47.30;38.40;;;;;;;;;;6204440;28;20221;-69
2022/03/02 18:06:03;;;;;;;49.47;41.63;;;;;;;;;;6217319;28;20594;-69
2022/03/02 18:09:26;;;;;;;41.10;36.53;;;;;;;;;;6215678;28;20264;-69
2022/03/02 18:12:47;;;;;;;51.63;43.47;;;;;;;;;;6212362;28;20366;-68
2022/03/02 18:16:08;;;;;;;51.60;41.07;;;;;;;;;;6205712;28;20229;-70
2022/03/02 18:19:30;;;;;;;36.50;30.60;;;;;;;;;;6218156;28;20226;-68
2022/03/02 18:22:51;;;;;;;34.83;30.67;;;;;;;;;;6212804;28;20233;-69
2022/03/02 18:26:14;;;;;;;37.97;33.17;;;;;;;;;;6204404;28;20249;-67
2022/03/02 18:29:35;;;;;;;37.00;31.40;;;;;;;;;;6215761;28;20233;-68
2022/03/02 18:32:56;;;;;;;44.00;37.43;;;;;;;;;;6214583;28;21713;-70
2022/03/02 18:36:18;;;;;;;34.33;30.67;;;;;;;;;;6213810;28;20681;-69
2022/03/02 18:39:38;;;;;;;66.13;59.13;;;;;;;;;;6217101;28;20319;-69
2022/03/02 18:43:01;;;;;;;39.43;35.23;;;;;;;;;;6216421;28;20323;-68
2022/03/02 18:46:22;;;;;;;69.07;60.77;;;;;;;;;;6215179;28;20229;-68
2022/03/02 18:49:42;;;;;;;63.00;50.33;;;;;;;;;;6207009;28;20225;-69
2022/03/02 18:53:03;;;;;;;63.10;54.50;;;;;;;;;;6213474;28;20256;-68
2022/03/02 18:56:24;;;;;;;45.57;39.93;;;;;;;;;;6211691;28;20275;-68
2022/03/02 18:59:48;;;;;;;43.93;39.03;;;;;;;;;;6213844;28;20252;-68
2022/03/02 19:03:09;;;;;;;42.07;36.80;;;;;;;;;;6212687;28;20254;-70
2022/03/02 19:06:30;;;;;;;42.17;36.33;;;;;;;;;;6214763;28;20504;-70
2022/03/02 19:09:51;;;;;;;36.10;31.57;;;;;;;;;;6213195;28;20229;-69
2022/03/02 19:13:13;;;;;;;38.63;32.60;;;;;;;;;;6212052;28;20233;-69
2022/03/02 19:16:36;;;;;;;54.33;46.53;;;;;;;;;;6213668;28;20237;-69
2022/03/02 19:19:58;;;;;;;46.50;38.47;;;;;;;;;;6214367;28;20236;-68
2022/03/02 19:23:20;;;;;;;44.80;37.40;;;;;;;;;;6214685;28;20229;-69
2022/03/02 19:26:41;;;;;;;44.77;36.80;;;;;;;;;;6212116;28;20851;-67
2022/03/02 19:30:03;;;;;;;43.47;36.17;;;;;;;;;;6214160;28;20248;-68
2022/03/02 19:33:25;;;;;;;39.73;34.33;;;;;;;;;;6213285;28;20241;-68
2022/03/02 19:36:46;;;;;;;41.00;33.37;;;;;;;;;;6214656;28;20328;-69
2022/03/02 19:40:08;;;;;;;52.73;41.90;;;;;;;;;;6211656;28;20241;-69